TimeCST,TemperatureF,Dew PointF,Humidity,Sea Level PressureIn,VisibilityMPH,Wind Direction,Wind SpeedMPH,Gust SpeedMPH,PrecipitationIn,Events,Conditions,WindDirDegrees,DateUTC
12:53 AM,46.0,21.9,39,30.06,10.0,South,9.2,-,N/A,,Scattered Clouds,190,2012-11-25 06:53:00
1:53 AM,46.0,23.0,40,30.04,10.0,South,9.2,-,N/A,,Mostly Cloudy,190,2012-11-25 07:53:00
2:53 AM,46.0,23.0,40,30.02,10.0,South,8.1,19.6,N/A,,Mostly Cloudy,190,2012-11-25 08:53:00
3:53 AM,45.0,24.1,44,30.01,10.0,South,10.4,-,N/A,,Scattered Clouds,190,2012-11-25 09:53:00
4:53 AM,44.1,24.1,45,30.00,10.0,South,6.9,-,N/A,,Partly Cloudy,180,2012-11-25 10:53:00
5:53 AM,44.6,24.8,46,29.99,10.0,South,8.1,-,N/A,,Partly Cloudy,190,2012-11-25 11:53:00
6:53 AM,46.0,24.1,42,29.99,10.0,South,5.8,-,N/A,,Scattered Clouds,180,2012-11-25 12:53:00
7:53 AM,48.0,25.0,41,29.98,10.0,South,6.9,18.4,N/A,,Clear,190,2012-11-25 13:53:00
8:53 AM,52.0,27.0,38,29.99,10.0,South,10.4,20.7,N/A,,Clear,190,2012-11-25 14:53:00
9:53 AM,55.9,28.0,34,29.99,10.0,South,11.5,21.9,N/A,,Partly Cloudy,180,2012-11-25 15:53:00
10:53 AM,60.1,30.0,32,29.97,10.0,South,9.2,20.7,N/A,,Clear,190,2012-11-25 16:53:00
11:53 AM,63.0,32.0,31,29.93,10.0,South,12.7,19.6,N/A,,Partly Cloudy,190,2012-11-25 17:53:00
12:53 PM,64.9,32.0,29,29.89,10.0,South,10.4,-,N/A,,Partly Cloudy,170,2012-11-25 18:53:00
1:53 PM,66.9,33.1,28,29.86,10.0,South,11.5,17.3,N/A,,Clear,170,2012-11-25 19:53:00
2:53 PM,69.1,33.1,26,29.83,10.0,SSE,11.5,18.4,N/A,,Partly Cloudy,160,2012-11-25 20:53:00
3:53 PM,69.1,35.1,29,29.83,10.0,SSE,10.4,18.4,N/A,,Clear,160,2012-11-25 21:53:00
4:53 PM,66.9,37.0,33,29.84,10.0,South,5.8,-,N/A,,Clear,170,2012-11-25 22:53:00
5:53 PM,63.0,39.0,41,29.86,10.0,South,4.6,-,N/A,,Clear,180,2012-11-25 23:53:00
6:53 PM,61.0,39.0,44,29.87,10.0,SSE,3.5,-,N/A,,Clear,150,2012-11-26 00:53:00
7:53 PM,57.9,39.9,51,29.87,10.0,ESE,6.9,-,N/A,,Clear,120,2012-11-26 01:53:00
8:53 PM,57.0,42.1,57,29.87,10.0,SE,6.9,-,N/A,,Partly Cloudy,130,2012-11-26 02:53:00
9:53 PM,57.0,43.0,59,29.87,10.0,ESE,6.9,-,N/A,,Clear,120,2012-11-26 03:53:00
10:53 PM,60.1,45.0,57,29.87,10.0,South,5.8,-,N/A,,Scattered Clouds,170,2012-11-26 04:53:00
11:53 PM,61.0,46.9,60,29.86,10.0,South,8.1,16.1,N/A,,Clear,180,2012-11-26 05:53:00